sensor_id;sensor_type;location;lat;lon;timestamp;temperature;humidity
54832;DHT22;40730;53.068;6.572;2024-03-17T00:02:18;3.30;99.90
54832;DHT22;40730;53.068;6.572;2024-03-17T00:04:45;3.30;99.90
54832;DHT22;40730;53.068;6.572;2024-03-17T00:07:11;3.20;99.90
54832;DHT22;40730;53.068;6.572;2024-03-17T00:09:37;3.20;99.90
54832;DHT22;40730;53.068;6.572;2024-03-17T00:12:03;3.20;99.90
54832;DHT22;40730;53.068;6.572;2024-03-17T00:14:29;3.10;99.90
54832;DHT22;40730;53.068;6.572;2024-03-17T00:16:54;3.10;99.90
54832;DHT22;40730;53.068;6.572;2024-03-17T00:19:20;3.00;99.90
54832;DHT22;40730;53.068;6.572;2024-03-17T00:21:48;3.00;99.90
54832;DHT22;40730;53.068;6.572;2024-03-17T00:24:16;3.00;99.90
54832;DHT22;40730;53.068;6.572;2024-03-17T00:26:42;2.90;99.90
54832;DHT22;40730;53.068;6.572;2024-03-17T00:29:07;2.90;99.90
54832;DHT22;40730;53.068;6.572;2024-03-17T00:31:33;2.90;99.90
54832;DHT22;40730;53.068;6.572;2024-03-17T00:33:58;2.90;99.90
54832;DHT22;40730;53.068;6.572;2024-03-17T00:36:24;2.80;99.90
54832;DHT22;40730;53.068;6.572;2024-03-17T00:38:49;2.90;99.90
54832;DHT22;40730;53.068;6.572;2024-03-17T00:41:17;2.80;99.90
54832;DHT22;40730;53.068;6.572;2024-03-17T00:43:43;2.80;99.90
54832;DHT22;40730;53.068;6.572;2024-03-17T00:46:08;2.80;99.90
54832;DHT22;40730;53.068;6.572;2024-03-17T00:48:34;2.70;99.90
54832;DHT22;40730;53.068;6.572;2024-03-17T00:50:59;2.70;99.90
54832;DHT22;40730;53.068;6.572;2024-03-17T00:53:25;2.70;99.90
54832;DHT22;40730;53.068;6.572;2024-03-17T00:55:55;2.70;99.90
54832;DHT22;40730;53.068;6.572;2024-03-17T00:58:24;2.70;99.90
54832;DHT22;40730;53.068;6.572;2024-03-17T01:00:50;2.60;99.90
54832;DHT22;40730;53.068;6.572;2024-03-17T01:03:16;2.60;99.90
54832;DHT22;40730;53.068;6.572;2024-03-17T01:05:42;2.60;99.90
54832;DHT22;40730;53.068;6.572;2024-03-17T01:08:10;2.60;99.90
54832;DHT22;40730;53.068;6.572;2024-03-17T01:10:40;2.60;99.90
54832;DHT22;40730;53.068;6.572;2024-03-17T01:13:07;2.60;99.90
54832;DHT22;40730;53.068;6.572;2024-03-17T01:15:34;2.60;99.90
54832;DHT22;40730;53.068;6.572;2024-03-17T01:18:00;2.50;99.90
54832;DHT22;40730;53.068;6.572;2024-03-17T01:20:26;2.40;99.90
54832;DHT22;40730;53.068;6.572;2024-03-17T01:22:52;2.40;99.90
54832;DHT22;40730;53.068;6.572;2024-03-17T01:25:18;2.40;99.90
54832;DHT22;40730;53.068;6.572;2024-03-17T01:27:43;2.40;99.90
54832;DHT22;40730;53.068;6.572;2024-03-17T01:30:10;2.40;99.90
54832;DHT22;40730;53.068;6.572;2024-03-17T01:32:36;2.30;99.90
54832;DHT22;40730;53.068;6.572;2024-03-17T01:35:02;2.30;99.90
54832;DHT22;40730;53.068;6.572;2024-03-17T01:37:28;2.20;99.90
54832;DHT22;40730;53.068;6.572;2024-03-17T01:40:00;2.20;99.90
54832;DHT22;40730;53.068;6.572;2024-03-17T01:42:25;2.20;99.90
54832;DHT22;40730;53.068;6.572;2024-03-17T01:44:51;2.20;99.90
54832;DHT22;40730;53.068;6.572;2024-03-17T01:47:17;2.20;99.90
54832;DHT22;40730;53.068;6.572;2024-03-17T01:49:45;2.10;99.90
54832;DHT22;40730;53.068;6.572;2024-03-17T01:52:11;2.10;99.90
54832;DHT22;40730;53.068;6.572;2024-03-17T01:54:37;2.10;99.90
54832;DHT22;40730;53.068;6.572;2024-03-17T01:57:03;2.10;99.90
54832;DHT22;40730;53.068;6.572;2024-03-17T01:59:29;2.10;99.90
54832;DHT22;40730;53.068;6.572;2024-03-17T02:01:55;2.10;99.90
54832;DHT22;40730;53.068;6.572;2024-03-17T02:04:20;2.10;99.90
54832;DHT22;40730;53.068;6.572;2024-03-17T02:06:47;2.00;99.90
54832;DHT22;40730;53.068;6.572;2024-03-17T02:09:13;2.00;99.90
54832;DHT22;40730;53.068;6.572;2024-03-17T02:11:38;2.00;99.90
54832;DHT22;40730;53.068;6.572;2024-03-17T02:14:04;2.00;99.90
54832;DHT22;40730;53.068;6.572;2024-03-17T02:16:32;2.00;99.90
54832;DHT22;40730;53.068;6.572;2024-03-17T02:18:58;1.90;99.90
54832;DHT22;40730;53.068;6.572;2024-03-17T02:21:25;1.90;99.90
54832;DHT22;40730;53.068;6.572;2024-03-17T02:23:56;1.90;99.90
54832;DHT22;40730;53.068;6.572;2024-03-17T02:26:22;1.90;99.90
54832;DHT22;40730;53.068;6.572;2024-03-17T02:28:48;1.80;99.90
54832;DHT22;40730;53.068;6.572;2024-03-17T02:31:17;1.80;99.90
54832;DHT22;40730;53.068;6.572;2024-03-17T02:33:43;1.80;99.90
54832;DHT22;40730;53.068;6.572;2024-03-17T02:36:09;1.80;99.90
54832;DHT22;40730;53.068;6.572;2024-03-17T02:38:36;1.80;99.90
54832;DHT22;40730;53.068;6.572;2024-03-17T02:41:20;1.80;99.90
54832;DHT22;40730;53.068;6.572;2024-03-17T02:43:46;1.80;99.90
54832;DHT22;40730;53.068;6.572;2024-03-17T02:46:13;1.80;99.90
54832;DHT22;40730;53.068;6.572;2024-03-17T02:48:42;1.80;99.90
54832;DHT22;40730;53.068;6.572;2024-03-17T02:51:12;1.80;99.90
54832;DHT22;40730;53.068;6.572;2024-03-17T02:53:43;1.80;99.90
54832;DHT22;40730;53.068;6.572;2024-03-17T02:56:10;1.80;99.90
54832;DHT22;40730;53.068;6.572;2024-03-17T02:58:37;1.80;99.90
54832;DHT22;40730;53.068;6.572;2024-03-17T03:01:04;1.90;99.90
54832;DHT22;40730;53.068;6.572;2024-03-17T03:03:31;1.90;99.90
54832;DHT22;40730;53.068;6.572;2024-03-17T03:05:57;2.00;99.90
54832;DHT22;40730;53.068;6.572;2024-03-17T03:08:22;2.00;99.90
54832;DHT22;40730;53.068;6.572;2024-03-17T03:10:51;2.10;99.90
54832;DHT22;40730;53.068;6.572;2024-03-17T03:13:16;2.10;99.90
54832;DHT22;40730;53.068;6.572;2024-03-17T03:15:43;2.10;99.90
54832;DHT22;40730;53.068;6.572;2024-03-17T03:18:09;2.20;99.90
54832;DHT22;40730;53.068;6.572;2024-03-17T03:20:34;2.30;99.90
54832;DHT22;40730;53.068;6.572;2024-03-17T03:23:01;2.30;99.90
54832;DHT22;40730;53.068;6.572;2024-03-17T03:25:28;2.30;99.90
54832;DHT22;40730;53.068;6.572;2024-03-17T03:27:53;2.30;99.90
54832;DHT22;40730;53.068;6.572;2024-03-17T03:30:21;2.40;99.90
54832;DHT22;40730;53.068;6.572;2024-03-17T03:32:48;2.40;99.90
54832;DHT22;40730;53.068;6.572;2024-03-17T03:35:13;2.40;99.90
54832;DHT22;40730;53.068;6.572;2024-03-17T03:37:40;2.50;99.90
54832;DHT22;40730;53.068;6.572;2024-03-17T03:40:07;2.50;99.90
54832;DHT22;40730;53.068;6.572;2024-03-17T03:42:43;2.50;99.90
54832;DHT22;40730;53.068;6.572;2024-03-17T03:45:09;2.60;99.90
54832;DHT22;40730;53.068;6.572;2024-03-17T03:47:41;2.60;99.90
54832;DHT22;40730;53.068;6.572;2024-03-17T03:50:08;2.60;99.90
54832;DHT22;40730;53.068;6.572;2024-03-17T03:52:37;2.70;99.90
54832;DHT22;40730;53.068;6.572;2024-03-17T03:55:04;2.70;99.90
54832;DHT22;40730;53.068;6.572;2024-03-17T03:57:35;2.80;99.90
54832;DHT22;40730;53.068;6.572;2024-03-17T04:00:02;2.80;99.90
54832;DHT22;40730;53.068;6.572;2024-03-17T04:02:47;2.90;99.90
54832;DHT22;40730;53.068;6.572;2024-03-17T04:05:13;2.90;99.90
54832;DHT22;40730;53.068;6.572;2024-03-17T04:07:39;2.90;99.90
54832;DHT22;40730;53.068;6.572;2024-03-17T04:10:06;3.00;99.90
54832;DHT22;40730;53.068;6.572;2024-03-17T04:12:32;3.00;99.90
54832;DHT22;40730;53.068;6.572;2024-03-17T04:14:59;3.00;99.90
54832;DHT22;40730;53.068;6.572;2024-03-17T04:17:25;3.10;99.90
54832;DHT22;40730;53.068;6.572;2024-03-17T04:19:51;3.10;99.90
54832;DHT22;40730;53.068;6.572;2024-03-17T04:22:17;3.20;99.90
54832;DHT22;40730;53.068;6.572;2024-03-17T04:24:44;3.20;99.90
54832;DHT22;40730;53.068;6.572;2024-03-17T04:27:10;3.30;99.90
54832;DHT22;40730;53.068;6.572;2024-03-17T04:29:36;3.30;99.90
54832;DHT22;40730;53.068;6.572;2024-03-17T04:32:02;3.30;99.90
54832;DHT22;40730;53.068;6.572;2024-03-17T04:34:30;3.40;99.90
54832;DHT22;40730;53.068;6.572;2024-03-17T04:36:56;3.40;99.90
54832;DHT22;40730;53.068;6.572;2024-03-17T04:39:22;3.40;99.90
54832;DHT22;40730;53.068;6.572;2024-03-17T04:41:48;3.40;99.90
54832;DHT22;40730;53.068;6.572;2024-03-17T04:44:15;3.40;99.90
54832;DHT22;40730;53.068;6.572;2024-03-17T04:46:41;3.50;99.90
54832;DHT22;40730;53.068;6.572;2024-03-17T04:49:06;3.50;99.90
54832;DHT22;40730;53.068;6.572;2024-03-17T04:51:33;3.60;99.90
54832;DHT22;40730;53.068;6.572;2024-03-17T04:53:59;3.60;99.90
54832;DHT22;40730;53.068;6.572;2024-03-17T04:56:25;3.50;99.90
54832;DHT22;40730;53.068;6.572;2024-03-17T04:58:50;3.60;99.90
54832;DHT22;40730;53.068;6.572;2024-03-17T05:01:16;3.60;99.90
54832;DHT22;40730;53.068;6.572;2024-03-17T05:03:42;3.60;99.90
54832;DHT22;40730;53.068;6.572;2024-03-17T05:06:07;3.60;99.90
54832;DHT22;40730;53.068;6.572;2024-03-17T05:08:34;3.60;99.90
54832;DHT22;40730;53.068;6.572;2024-03-17T05:11:04;3.60;99.90
54832;DHT22;40730;53.068;6.572;2024-03-17T05:13:34;3.60;99.90
54832;DHT22;40730;53.068;6.572;2024-03-17T05:16:00;3.50;99.90
54832;DHT22;40730;53.068;6.572;2024-03-17T05:18:26;3.60;99.90
54832;DHT22;40730;53.068;6.572;2024-03-17T05:21:05;3.60;99.90
54832;DHT22;40730;53.068;6.572;2024-03-17T05:23:32;3.60;99.90
54832;DHT22;40730;53.068;6.572;2024-03-17T05:25:58;3.60;99.90
54832;DHT22;40730;53.068;6.572;2024-03-17T05:28:25;3.60;99.90
54832;DHT22;40730;53.068;6.572;2024-03-17T05:30:51;3.60;99.90
54832;DHT22;40730;53.068;6.572;2024-03-17T05:33:18;3.60;99.90
54832;DHT22;40730;53.068;6.572;2024-03-17T05:35:55;3.60;99.90
54832;DHT22;40730;53.068;6.572;2024-03-17T05:38:23;3.70;99.90
54832;DHT22;40730;53.068;6.572;2024-03-17T05:41:03;3.60;99.90
54832;DHT22;40730;53.068;6.572;2024-03-17T05:43:33;3.70;99.90
54832;DHT22;40730;53.068;6.572;2024-03-17T05:46:02;3.70;99.90
54832;DHT22;40730;53.068;6.572;2024-03-17T05:48:28;3.70;99.90
54832;DHT22;40730;53.068;6.572;2024-03-17T05:50:54;3.70;99.90
54832;DHT22;40730;53.068;6.572;2024-03-17T05:53:21;3.70;99.90
54832;DHT22;40730;53.068;6.572;2024-03-17T05:55:47;3.80;99.90
54832;DHT22;40730;53.068;6.572;2024-03-17T05:58:13;3.80;99.90
54832;DHT22;40730;53.068;6.572;2024-03-17T06:00:39;3.80;99.90
54832;DHT22;40730;53.068;6.572;2024-03-17T06:03:05;3.90;99.90
54832;DHT22;40730;53.068;6.572;2024-03-17T06:05:35;3.90;99.90
54832;DHT22;40730;53.068;6.572;2024-03-17T06:08:02;3.90;99.90
54832;DHT22;40730;53.068;6.572;2024-03-17T06:10:32;4.00;99.90
54832;DHT22;40730;53.068;6.572;2024-03-17T06:12:58;4.00;99.90
54832;DHT22;40730;53.068;6.572;2024-03-17T06:15:25;4.00;99.90
54832;DHT22;40730;53.068;6.572;2024-03-17T06:17:51;4.00;99.90
54832;DHT22;40730;53.068;6.572;2024-03-17T06:20:21;4.00;99.90
54832;DHT22;40730;53.068;6.572;2024-03-17T06:22:47;4.00;99.90
54832;DHT22;40730;53.068;6.572;2024-03-17T06:25:16;4.10;99.90
54832;DHT22;40730;53.068;6.572;2024-03-17T06:27:42;4.70;99.90
54832;DHT22;40730;53.068;6.572;2024-03-17T06:30:13;4.20;99.90
54832;DHT22;40730;53.068;6.572;2024-03-17T06:32:43;4.30;99.90
54832;DHT22;40730;53.068;6.572;2024-03-17T06:35:14;4.40;99.90
54832;DHT22;40730;53.068;6.572;2024-03-17T06:37:50;4.50;99.90
54832;DHT22;40730;53.068;6.572;2024-03-17T06:40:18;4.60;99.90
54832;DHT22;40730;53.068;6.572;2024-03-17T06:42:43;4.90;99.90
54832;DHT22;40730;53.068;6.572;2024-03-17T06:45:09;4.90;99.90
54832;DHT22;40730;53.068;6.572;2024-03-17T06:47:36;5.10;99.90
54832;DHT22;40730;53.068;6.572;2024-03-17T06:50:02;5.10;99.90
54832;DHT22;40730;53.068;6.572;2024-03-17T06:52:28;5.30;99.90
54832;DHT22;40730;53.068;6.572;2024-03-17T06:54:54;5.40;99.90
54832;DHT22;40730;53.068;6.572;2024-03-17T06:57:19;5.60;99.90
54832;DHT22;40730;53.068;6.572;2024-03-17T06:59:45;5.70;99.90
54832;DHT22;40730;53.068;6.572;2024-03-17T07:02:11;5.80;99.90
54832;DHT22;40730;53.068;6.572;2024-03-17T07:04:43;5.90;99.90
54832;DHT22;40730;53.068;6.572;2024-03-17T07:07:09;6.00;99.90
54832;DHT22;40730;53.068;6.572;2024-03-17T07:09:35;6.00;99.90
54832;DHT22;40730;53.068;6.572;2024-03-17T07:12:00;6.00;99.90
54832;DHT22;40730;53.068;6.572;2024-03-17T07:14:26;6.10;99.90
54832;DHT22;40730;53.068;6.572;2024-03-17T07:16:52;6.20;99.90
54832;DHT22;40730;53.068;6.572;2024-03-17T07:19:18;6.30;99.90
54832;DHT22;40730;53.068;6.572;2024-03-17T07:21:44;6.40;99.90
54832;DHT22;40730;53.068;6.572;2024-03-17T07:24:09;6.50;99.90
54832;DHT22;40730;53.068;6.572;2024-03-17T07:26:35;6.60;99.90
54832;DHT22;40730;53.068;6.572;2024-03-17T07:29:00;6.60;99.90
54832;DHT22;40730;53.068;6.572;2024-03-17T07:31:26;6.60;99.90
54832;DHT22;40730;53.068;6.572;2024-03-17T07:33:52;6.70;99.90
54832;DHT22;40730;53.068;6.572;2024-03-17T07:36:17;6.80;99.90
54832;DHT22;40730;53.068;6.572;2024-03-17T07:38:43;6.80;99.90
54832;DHT22;40730;53.068;6.572;2024-03-17T07:41:09;6.80;99.90
54832;DHT22;40730;53.068;6.572;2024-03-17T07:43:38;6.90;99.90
54832;DHT22;40730;53.068;6.572;2024-03-17T07:46:08;6.80;99.90
54832;DHT22;40730;53.068;6.572;2024-03-17T07:48:37;6.90;99.90
54832;DHT22;40730;53.068;6.572;2024-03-17T07:51:04;7.00;99.90
54832;DHT22;40730;53.068;6.572;2024-03-17T07:53:31;7.00;99.90
54832;DHT22;40730;53.068;6.572;2024-03-17T07:56:01;7.00;99.90
54832;DHT22;40730;53.068;6.572;2024-03-17T07:58:27;7.10;99.90
54832;DHT22;40730;53.068;6.572;2024-03-17T08:01:06;7.10;99.90
54832;DHT22;40730;53.068;6.572;2024-03-17T08:03:34;7.10;99.90
54832;DHT22;40730;53.068;6.572;2024-03-17T08:06:01;7.20;99.90
54832;DHT22;40730;53.068;6.572;2024-03-17T08:08:28;7.20;99.90
54832;DHT22;40730;53.068;6.572;2024-03-17T08:10:54;7.30;99.90
54832;DHT22;40730;53.068;6.572;2024-03-17T08:13:21;7.30;99.90
54832;DHT22;40730;53.068;6.572;2024-03-17T08:15:56;7.40;99.90
54832;DHT22;40730;53.068;6.572;2024-03-17T08:18:22;7.50;99.90
54832;DHT22;40730;53.068;6.572;2024-03-17T08:20:48;7.50;99.90
54832;DHT22;40730;53.068;6.572;2024-03-17T08:23:14;7.60;99.90
54832;DHT22;40730;53.068;6.572;2024-03-17T08:25:39;7.70;99.90
54832;DHT22;40730;53.068;6.572;2024-03-17T08:28:05;7.80;99.90
54832;DHT22;40730;53.068;6.572;2024-03-17T08:30:32;7.80;99.90
54832;DHT22;40730;53.068;6.572;2024-03-17T08:32:58;7.90;99.90
54832;DHT22;40730;53.068;6.572;2024-03-17T08:35:24;8.00;99.90
54832;DHT22;40730;53.068;6.572;2024-03-17T08:37:50;8.10;99.90
54832;DHT22;40730;53.068;6.572;2024-03-17T08:40:21;8.20;99.90
54832;DHT22;40730;53.068;6.572;2024-03-17T08:42:48;8.20;99.90
54832;DHT22;40730;53.068;6.572;2024-03-17T08:45:14;8.30;99.90
54832;DHT22;40730;53.068;6.572;2024-03-17T08:47:39;8.40;99.90
54832;DHT22;40730;53.068;6.572;2024-03-17T08:50:05;8.50;99.90
54832;DHT22;40730;53.068;6.572;2024-03-17T08:52:34;8.60;99.90
54832;DHT22;40730;53.068;6.572;2024-03-17T08:55:00;8.60;99.90
54832;DHT22;40730;53.068;6.572;2024-03-17T08:57:28;8.80;99.90
54832;DHT22;40730;53.068;6.572;2024-03-17T08:59:53;8.90;99.90
54832;DHT22;40730;53.068;6.572;2024-03-17T09:02:19;9.00;99.90
54832;DHT22;40730;53.068;6.572;2024-03-17T09:04:47;9.10;99.90
54832;DHT22;40730;53.068;6.572;2024-03-17T09:07:12;9.20;99.90
54832;DHT22;40730;53.068;6.572;2024-03-17T09:09:41;9.40;99.90
54832;DHT22;40730;53.068;6.572;2024-03-17T09:12:07;9.40;99.90
54832;DHT22;40730;53.068;6.572;2024-03-17T09:14:33;9.50;99.90
54832;DHT22;40730;53.068;6.572;2024-03-17T09:16:59;9.60;99.90
54832;DHT22;40730;53.068;6.572;2024-03-17T09:19:24;9.70;99.90
54832;DHT22;40730;53.068;6.572;2024-03-17T09:21:50;9.80;99.90
54832;DHT22;40730;53.068;6.572;2024-03-17T09:24:16;9.90;99.90
54832;DHT22;40730;53.068;6.572;2024-03-17T09:26:41;10.00;99.90
54832;DHT22;40730;53.068;6.572;2024-03-17T09:29:07;10.10;99.90
54832;DHT22;40730;53.068;6.572;2024-03-17T09:31:32;10.20;99.90
54832;DHT22;40730;53.068;6.572;2024-03-17T09:34:03;10.30;99.90
54832;DHT22;40730;53.068;6.572;2024-03-17T09:36:29;10.50;99.90
54832;DHT22;40730;53.068;6.572;2024-03-17T09:38:56;10.80;99.90
54832;DHT22;40730;53.068;6.572;2024-03-17T09:41:24;10.80;99.90
54832;DHT22;40730;53.068;6.572;2024-03-17T09:43:54;10.90;99.90
54832;DHT22;40730;53.068;6.572;2024-03-17T09:46:23;11.00;99.90
54832;DHT22;40730;53.068;6.572;2024-03-17T09:48:49;11.00;99.90
54832;DHT22;40730;53.068;6.572;2024-03-17T09:51:23;11.00;99.90
54832;DHT22;40730;53.068;6.572;2024-03-17T09:53:49;10.90;99.90
54832;DHT22;40730;53.068;6.572;2024-03-17T09:56:17;11.00;99.90
54832;DHT22;40730;53.068;6.572;2024-03-17T09:58:47;10.90;99.90
54832;DHT22;40730;53.068;6.572;2024-03-17T10:01:13;11.10;99.90
54832;DHT22;40730;53.068;6.572;2024-03-17T10:03:46;10.90;99.90
54832;DHT22;40730;53.068;6.572;2024-03-17T10:06:16;10.80;99.90
54832;DHT22;40730;53.068;6.572;2024-03-17T10:08:51;10.80;99.90
54832;DHT22;40730;53.068;6.572;2024-03-17T10:11:22;10.80;99.90
54832;DHT22;40730;53.068;6.572;2024-03-17T10:14:02;10.70;99.90
54832;DHT22;40730;53.068;6.572;2024-03-17T10:16:30;10.70;99.90
54832;DHT22;40730;53.068;6.572;2024-03-17T10:19:10;10.70;99.90
54832;DHT22;40730;53.068;6.572;2024-03-17T10:21:38;10.80;99.90
54832;DHT22;40730;53.068;6.572;2024-03-17T10:24:17;10.80;99.90
54832;DHT22;40730;53.068;6.572;2024-03-17T10:26:48;10.80;99.90
54832;DHT22;40730;53.068;6.572;2024-03-17T10:31:50;10.80;99.90
54832;DHT22;40730;53.068;6.572;2024-03-17T10:34:17;10.80;99.90
54832;DHT22;40730;53.068;6.572;2024-03-17T10:36:50;10.80;99.90
54832;DHT22;40730;53.068;6.572;2024-03-17T10:39:24;10.80;99.90
54832;DHT22;40730;53.068;6.572;2024-03-17T10:42:07;10.80;99.90
54832;DHT22;40730;53.068;6.572;2024-03-17T10:44:35;10.80;99.90
54832;DHT22;40730;53.068;6.572;2024-03-17T10:47:02;10.80;99.90
54832;DHT22;40730;53.068;6.572;2024-03-17T10:49:38;10.80;99.90
54832;DHT22;40730;53.068;6.572;2024-03-17T10:52:07;10.80;99.90
54832;DHT22;40730;53.068;6.572;2024-03-17T10:54:34;10.90;99.90
54832;DHT22;40730;53.068;6.572;2024-03-17T10:57:24;10.80;99.90
54832;DHT22;40730;53.068;6.572;2024-03-17T10:59:53;10.90;99.90
54832;DHT22;40730;53.068;6.572;2024-03-17T11:04:55;10.90;99.90
54832;DHT22;40730;53.068;6.572;2024-03-17T11:07:22;10.90;99.90
54832;DHT22;40730;53.068;6.572;2024-03-17T11:09:50;10.90;99.90
54832;DHT22;40730;53.068;6.572;2024-03-17T11:12:40;11.00;99.90
54832;DHT22;40730;53.068;6.572;2024-03-17T11:17:48;11.10;99.90
54832;DHT22;40730;53.068;6.572;2024-03-17T11:20:24;11.10;99.90
54832;DHT22;40730;53.068;6.572;2024-03-17T11:23:00;11.20;99.90
54832;DHT22;40730;53.068;6.572;2024-03-17T11:27:55;11.20;99.90
54832;DHT22;40730;53.068;6.572;2024-03-17T11:41:38;11.20;99.90
54832;DHT22;40730;53.068;6.572;2024-03-17T11:47:01;11.20;99.90
54832;DHT22;40730;53.068;6.572;2024-03-17T11:49:33;11.20;99.90
54832;DHT22;40730;53.068;6.572;2024-03-17T11:52:02;11.20;99.90
54832;DHT22;40730;53.068;6.572;2024-03-17T11:54:39;11.20;99.90
54832;DHT22;40730;53.068;6.572;2024-03-17T11:57:10;11.20;99.90
54832;DHT22;40730;53.068;6.572;2024-03-17T11:59:36;11.20;99.90
54832;DHT22;40730;53.068;6.572;2024-03-17T12:02:18;11.20;99.90
54832;DHT22;40730;53.068;6.572;2024-03-17T12:04:45;11.30;99.90
54832;DHT22;40730;53.068;6.572;2024-03-17T12:07:18;11.30;99.90
54832;DHT22;40730;53.068;6.572;2024-03-17T12:09:45;11.40;99.90
54832;DHT22;40730;53.068;6.572;2024-03-17T12:14:40;11.50;99.90
54832;DHT22;40730;53.068;6.572;2024-03-17T12:17:10;11.70;99.90
54832;DHT22;40730;53.068;6.572;2024-03-17T12:19:37;11.80;99.90
54832;DHT22;40730;53.068;6.572;2024-03-17T12:22:06;11.80;99.90
54832;DHT22;40730;53.068;6.572;2024-03-17T12:24:36;11.90;99.90
54832;DHT22;40730;53.068;6.572;2024-03-17T12:27:04;11.90;99.90
54832;DHT22;40730;53.068;6.572;2024-03-17T12:29:32;12.00;99.90
54832;DHT22;40730;53.068;6.572;2024-03-17T12:32:03;12.10;99.90
54832;DHT22;40730;53.068;6.572;2024-03-17T12:34:31;12.10;99.90
54832;DHT22;40730;53.068;6.572;2024-03-17T12:36:58;12.10;99.90
54832;DHT22;40730;53.068;6.572;2024-03-17T12:39:29;12.10;99.90
54832;DHT22;40730;53.068;6.572;2024-03-17T12:42:15;12.10;99.90
54832;DHT22;40730;53.068;6.572;2024-03-17T12:45:09;12.20;99.90
54832;DHT22;40730;53.068;6.572;2024-03-17T12:47:34;12.20;99.90
54832;DHT22;40730;53.068;6.572;2024-03-17T12:50:01;12.20;99.90
54832;DHT22;40730;53.068;6.572;2024-03-17T12:52:28;12.20;99.90
54832;DHT22;40730;53.068;6.572;2024-03-17T12:55:05;12.20;99.90
54832;DHT22;40730;53.068;6.572;2024-03-17T12:57:51;12.20;99.90
54832;DHT22;40730;53.068;6.572;2024-03-17T13:00:35;12.20;99.90
54832;DHT22;40730;53.068;6.572;2024-03-17T13:03:05;12.20;99.90
54832;DHT22;40730;53.068;6.572;2024-03-17T13:05:32;12.20;99.90
54832;DHT22;40730;53.068;6.572;2024-03-17T13:07:58;12.20;99.90
54832;DHT22;40730;53.068;6.572;2024-03-17T13:10:28;12.10;99.90
54832;DHT22;40730;53.068;6.572;2024-03-17T13:13:04;12.10;99.90
54832;DHT22;40730;53.068;6.572;2024-03-17T13:15:33;12.10;99.90
54832;DHT22;40730;53.068;6.572;2024-03-17T13:18:03;12.20;99.90
54832;DHT22;40730;53.068;6.572;2024-03-17T13:20:33;12.10;99.90
54832;DHT22;40730;53.068;6.572;2024-03-17T13:22:59;12.20;99.90
54832;DHT22;40730;53.068;6.572;2024-03-17T13:25:30;12.20;99.90
54832;DHT22;40730;53.068;6.572;2024-03-17T13:28:04;12.30;99.90
54832;DHT22;40730;53.068;6.572;2024-03-17T13:30:33;12.30;99.90
54832;DHT22;40730;53.068;6.572;2024-03-17T13:33:02;12.40;99.90
54832;DHT22;40730;53.068;6.572;2024-03-17T13:35:31;12.50;99.90
54832;DHT22;40730;53.068;6.572;2024-03-17T13:37:57;12.50;99.90
54832;DHT22;40730;53.068;6.572;2024-03-17T13:40:29;12.50;99.90
54832;DHT22;40730;53.068;6.572;2024-03-17T13:42:55;12.50;99.90
54832;DHT22;40730;53.068;6.572;2024-03-17T13:45:24;12.50;99.90
54832;DHT22;40730;53.068;6.572;2024-03-17T13:47:54;12.40;99.90
54832;DHT22;40730;53.068;6.572;2024-03-17T13:50:21;12.40;99.90
54832;DHT22;40730;53.068;6.572;2024-03-17T13:52:46;12.40;99.90
54832;DHT22;40730;53.068;6.572;2024-03-17T13:55:18;12.20;99.90
54832;DHT22;40730;53.068;6.572;2024-03-17T13:57:46;12.30;99.90
54832;DHT22;40730;53.068;6.572;2024-03-17T14:00:13;12.30;99.90
54832;DHT22;40730;53.068;6.572;2024-03-17T14:02:46;12.30;99.90
54832;DHT22;40730;53.068;6.572;2024-03-17T14:05:13;12.30;99.90
54832;DHT22;40730;53.068;6.572;2024-03-17T14:07:40;12.20;99.90
54832;DHT22;40730;53.068;6.572;2024-03-17T14:10:06;12.20;99.90
54832;DHT22;40730;53.068;6.572;2024-03-17T14:12:34;12.10;99.90
54832;DHT22;40730;53.068;6.572;2024-03-17T14:15:00;12.10;99.90
54832;DHT22;40730;53.068;6.572;2024-03-17T14:17:26;12.00;99.90
54832;DHT22;40730;53.068;6.572;2024-03-17T14:19:52;12.00;99.90
54832;DHT22;40730;53.068;6.572;2024-03-17T14:22:18;12.00;99.90
54832;DHT22;40730;53.068;6.572;2024-03-17T14:24:44;12.00;99.90
54832;DHT22;40730;53.068;6.572;2024-03-17T14:27:12;11.90;99.90
54832;DHT22;40730;53.068;6.572;2024-03-17T14:29:38;11.90;99.90
54832;DHT22;40730;53.068;6.572;2024-03-17T14:32:03;11.90;99.90
54832;DHT22;40730;53.068;6.572;2024-03-17T14:34:29;11.80;99.90
54832;DHT22;40730;53.068;6.572;2024-03-17T14:37:00;11.80;99.90
54832;DHT22;40730;53.068;6.572;2024-03-17T14:39:26;11.80;99.90
54832;DHT22;40730;53.068;6.572;2024-03-17T14:41:54;11.70;99.90
54832;DHT22;40730;53.068;6.572;2024-03-17T14:44:20;11.70;99.90
54832;DHT22;40730;53.068;6.572;2024-03-17T14:46:45;11.70;99.90
54832;DHT22;40730;53.068;6.572;2024-03-17T14:49:11;11.60;99.90
54832;DHT22;40730;53.068;6.572;2024-03-17T14:51:37;11.60;99.90
54832;DHT22;40730;53.068;6.572;2024-03-17T14:54:02;11.60;99.90
54832;DHT22;40730;53.068;6.572;2024-03-17T14:56:29;11.60;99.90
54832;DHT22;40730;53.068;6.572;2024-03-17T14:58:54;11.60;99.90
54832;DHT22;40730;53.068;6.572;2024-03-17T15:01:20;11.60;99.90
54832;DHT22;40730;53.068;6.572;2024-03-17T15:03:46;11.60;99.90
54832;DHT22;40730;53.068;6.572;2024-03-17T15:06:15;11.50;99.90
54832;DHT22;40730;53.068;6.572;2024-03-17T15:08:44;11.60;99.90
54832;DHT22;40730;53.068;6.572;2024-03-17T15:11:10;11.60;99.90
54832;DHT22;40730;53.068;6.572;2024-03-17T15:13:36;11.80;99.90
54832;DHT22;40730;53.068;6.572;2024-03-17T15:16:05;11.60;99.90
54832;DHT22;40730;53.068;6.572;2024-03-17T15:18:32;11.50;99.90
54832;DHT22;40730;53.068;6.572;2024-03-17T15:20:59;11.50;99.90
54832;DHT22;40730;53.068;6.572;2024-03-17T15:23:26;11.50;99.90
54832;DHT22;40730;53.068;6.572;2024-03-17T15:26:04;11.40;99.90
54832;DHT22;40730;53.068;6.572;2024-03-17T15:28:43;11.40;99.90
54832;DHT22;40730;53.068;6.572;2024-03-17T15:31:09;11.40;99.90
54832;DHT22;40730;53.068;6.572;2024-03-17T15:33:36;11.40;99.90
54832;DHT22;40730;53.068;6.572;2024-03-17T15:36:08;11.40;99.90
54832;DHT22;40730;53.068;6.572;2024-03-17T15:38:36;11.40;99.90
54832;DHT22;40730;53.068;6.572;2024-03-17T15:41:09;11.40;99.90
54832;DHT22;40730;53.068;6.572;2024-03-17T15:43:39;11.40;99.90
54832;DHT22;40730;53.068;6.572;2024-03-17T15:46:15;11.30;99.90
54832;DHT22;40730;53.068;6.572;2024-03-17T15:48:41;11.30;99.90
54832;DHT22;40730;53.068;6.572;2024-03-17T15:51:07;11.30;99.90
54832;DHT22;40730;53.068;6.572;2024-03-17T15:53:32;11.30;99.90
54832;DHT22;40730;53.068;6.572;2024-03-17T15:56:02;11.30;99.90
54832;DHT22;40730;53.068;6.572;2024-03-17T15:58:30;11.20;99.90
54832;DHT22;40730;53.068;6.572;2024-03-17T16:00:56;11.30;99.90
54832;DHT22;40730;53.068;6.572;2024-03-17T16:03:33;11.20;99.90
54832;DHT22;40730;53.068;6.572;2024-03-17T16:06:05;11.20;99.90
54832;DHT22;40730;53.068;6.572;2024-03-17T16:08:46;11.20;99.90
54832;DHT22;40730;53.068;6.572;2024-03-17T16:11:13;11.10;99.90
54832;DHT22;40730;53.068;6.572;2024-03-17T16:13:41;11.10;99.90